Time;durP1;ratioP1;P1;durP2;ratioP2;P2;SDS_P1;SDS_P2;PMS_P1;PMS_P2;Temp;Humidity;BMP_temperature;BMP_pressure;BME280_temperature;BME280_humidity;BME280_pressure;Samples;Min_cycle;Max_cycle;Signal;HPM_P1;HPM_P2
2024/02/09 00:01:49;;;;;;;10.63;5.07;;;7.50;99.90;;;;;;8446780;28;20103;-74
2024/02/09 00:05:52;;;;;;;10.18;4.65;;;7.60;99.90;;;;;;8449383;28;20082;-74
2024/02/09 00:09:55;;;;;;;11.77;4.07;;;7.60;99.90;;;;;;8450468;27;20040;-74
2024/02/09 00:13:56;;;;;;;10.70;4.35;;;7.80;99.90;;;;;;8446767;28;20162;-74
2024/02/09 00:17:58;;;;;;;10.48;4.53;;;7.90;99.90;;;;;;8452504;28;20398;-74
2024/02/09 00:22:00;;;;;;;12.07;4.72;;;8.10;99.90;;;;;;8457231;28;20039;-74
2024/02/09 00:26:02;;;;;;;13.73;4.80;;;8.20;99.90;;;;;;8453268;28;20043;-74
2024/02/09 00:30:05;;;;;;;10.23;4.25;;;8.30;99.90;;;;;;8450501;28;20054;-74
2024/02/09 00:34:07;;;;;;;11.30;4.45;;;8.50;99.90;;;;;;8455754;28;20464;-74
2024/02/09 00:38:09;;;;;;;11.23;5.22;;;8.50;99.90;;;;;;8446908;28;20091;-74
2024/02/09 00:42:12;;;;;;;10.30;4.95;;;8.70;99.90;;;;;;8477182;27;20063;-74
2024/02/09 00:46:15;;;;;;;12.38;5.35;;;8.70;99.90;;;;;;8453271;28;20043;-74
2024/02/09 00:50:17;;;;;;;12.43;5.40;;;8.80;99.90;;;;;;8451363;28;20123;-74
2024/02/09 00:54:22;;;;;;;9.48;4.78;;;8.80;99.90;;;;;;8455596;28;20051;-74
2024/02/09 00:58:24;;;;;;;11.65;5.60;;;8.80;99.90;;;;;;8447793;28;20047;-74
2024/02/09 01:02:26;;;;;;;11.85;5.70;;;8.90;99.90;;;;;;8451478;28;20491;-74
2024/02/09 01:06:28;;;;;;;10.07;4.20;;;8.90;99.90;;;;;;8449960;28;20055;-74
2024/02/09 01:10:32;;;;;;;11.85;4.75;;;8.90;99.90;;;;;;8448922;28;20051;-74
2024/02/09 02:45:36;;;;;;;9.77;3.45;;;9.40;99.90;;;;;;8453722;28;20048;-74
2024/02/09 03:07:02;;;;;;;9.38;3.35;;;9.50;99.90;;;;;;8453671;28;20448;-74
2024/02/09 03:11:24;;;;;;;12.55;4.22;;;9.50;99.90;;;;;;8455046;28;20515;-74
2024/02/09 03:15:26;;;;;;;7.55;3.80;;;9.50;99.90;;;;;;8447250;28;20120;-74
2024/02/09 03:19:28;;;;;;;10.02;3.75;;;9.60;99.90;;;;;;8449404;28;20165;-74
2024/02/09 03:23:30;;;;;;;11.35;4.13;;;9.50;99.90;;;;;;8453469;28;20043;-74
2024/02/09 03:27:34;;;;;;;12.05;4.38;;;9.60;99.90;;;;;;8454544;27;20048;-75
2024/02/09 03:31:36;;;;;;;8.80;3.90;;;9.50;99.90;;;;;;8451651;28;20043;-74
2024/02/09 03:36:20;;;;;;;10.80;4.57;;;9.60;99.90;;;;;;8453072;28;20427;-74
2024/02/09 03:40:22;;;;;;;11.07;3.65;;;9.60;99.90;;;;;;8447654;28;20051;-74
2024/02/09 03:44:24;;;;;;;9.18;4.03;;;9.60;99.90;;;;;;8455063;28;20047;-74
2024/02/09 03:48:26;;;;;;;10.57;3.35;;;9.60;99.90;;;;;;8450559;28;20482;-74
2024/02/09 03:52:29;;;;;;;8.20;3.90;;;9.60;99.90;;;;;;8476122;27;20437;-74
2024/02/09 03:56:31;;;;;;;13.18;4.43;;;9.60;99.90;;;;;;8454723;28;20055;-75
2024/02/09 04:00:32;;;;;;;10.00;3.80;;;9.60;99.90;;;;;;8447121;28;20487;-74
2024/02/09 04:04:34;;;;;;;9.70;4.15;;;9.70;99.90;;;;;;8456387;27;20490;-74
2024/02/09 04:08:36;;;;;;;8.63;3.65;;;9.60;99.90;;;;;;8452325;28;20043;-74
2024/02/09 04:12:38;;;;;;;6.95;3.22;;;9.70;99.90;;;;;;8449798;28;20052;-75
2024/02/09 04:16:40;;;;;;;8.82;3.28;;;9.70;99.90;;;;;;8449516;28;20074;-74
2024/02/09 04:20:42;;;;;;;13.27;3.45;;;9.70;99.90;;;;;;8452659;28;20050;-74
2024/02/09 04:24:50;;;;;;;6.07;2.78;;;9.70;99.90;;;;;;8451530;28;21821;-74
2024/02/09 04:28:54;;;;;;;8.88;3.00;;;9.70;99.90;;;;;;8445418;28;20138;-75
2024/02/09 04:32:59;;;;;;;7.40;3.40;;;9.70;99.90;;;;;;8440774;28;20487;-74
2024/02/09 04:37:01;;;;;;;7.10;2.80;;;9.70;99.90;;;;;;8459338;27;20056;-74
2024/02/09 04:41:03;;;;;;;4.85;2.13;;;9.70;99.90;;;;;;8432705;28;20043;-75
2024/02/09 04:45:05;;;;;;;8.55;2.95;;;9.80;99.90;;;;;;8455127;28;20047;-74
2024/02/09 04:49:09;;;;;;;6.10;2.90;;;9.80;99.90;;;;;;8456646;28;20410;-74
2024/02/09 04:53:11;;;;;;;6.20;2.53;;;9.80;99.90;;;;;;8456701;28;20075;-75
2024/02/09 04:57:13;;;;;;;6.20;2.50;;;9.80;99.90;;;;;;8456349;28;20410;-75
2024/02/09 05:01:29;;;;;;;4.82;2.50;;;9.80;99.90;;;;;;8453120;28;20125;-74
2024/02/09 05:05:32;;;;;;;6.43;2.50;;;9.80;99.90;;;;;;8447924;28;20048;-75
2024/02/09 05:09:37;;;;;;;5.57;2.70;;;9.80;99.90;;;;;;8446239;28;20047;-75
2024/02/09 05:13:40;;;;;;;7.13;2.67;;;9.80;99.90;;;;;;8448121;28;20078;-75
2024/02/09 05:17:42;;;;;;;5.95;2.63;;;9.80;99.90;;;;;;8449740;28;20122;-75
2024/02/09 05:21:44;;;;;;;7.28;3.20;;;9.80;99.90;;;;;;8458813;28;20039;-75
2024/02/09 05:25:45;;;;;;;7.60;3.28;;;9.80;99.90;;;;;;8459690;28;20054;-74
2024/02/09 05:29:48;;;;;;;6.35;3.17;;;9.80;99.90;;;;;;8449113;28;20052;-74
2024/02/09 05:33:53;;;;;;;4.88;2.67;;;9.80;99.90;;;;;;8454174;27;20051;-74
2024/02/09 05:37:55;;;;;;;5.68;3.00;;;9.80;99.90;;;;;;8455595;27;20047;-75
2024/02/09 05:41:56;;;;;;;5.60;2.80;;;9.90;99.90;;;;;;8457769;27;20054;-75
2024/02/09 05:45:58;;;;;;;6.90;3.00;;;9.90;99.90;;;;;;8465624;27;20043;-75
2024/02/09 05:50:00;;;;;;;7.28;3.00;;;9.90;99.90;;;;;;8452178;28;20090;-74
2024/02/09 05:54:03;;;;;;;6.55;2.53;;;9.90;99.90;;;;;;8458701;27;20398;-74
2024/02/09 05:58:05;;;;;;;8.13;2.42;;;9.90;99.90;;;;;;8455340;27;20043;-75
2024/02/09 06:02:07;;;;;;;7.30;2.70;;;9.90;99.90;;;;;;8454863;28;20032;-74
2024/02/09 06:06:12;;;;;;;7.32;3.00;;;9.90;99.90;;;;;;8459649;28;20044;-74
2024/02/09 06:10:15;;;;;;;7.50;2.47;;;9.90;99.90;;;;;;8457313;28;20448;-74
2024/02/09 06:14:17;;;;;;;7.82;2.78;;;9.90;99.90;;;;;;8453060;27;20073;-74
2024/02/09 06:18:19;;;;;;;7.18;2.80;;;9.90;99.90;;;;;;8452399;27;20051;-74
2024/02/09 06:22:21;;;;;;;5.47;2.30;;;9.90;99.90;;;;;;8454712;28;20055;-74
2024/02/09 06:26:23;;;;;;;6.10;2.38;;;9.90;99.90;;;;;;8455795;28;20112;-74
2024/02/09 06:30:26;;;;;;;9.63;3.20;;;9.90;99.90;;;;;;8460924;28;20479;-74
2024/02/09 06:34:28;;;;;;;5.20;2.63;;;9.90;99.90;;;;;;8459881;28;20085;-74
2024/02/09 06:38:31;;;;;;;6.28;3.15;;;9.90;99.90;;;;;;8450017;28;20055;-74
2024/02/09 06:42:34;;;;;;;7.38;2.65;;;9.90;99.90;;;;;;8453747;28;20074;-74
2024/02/09 06:46:36;;;;;;;5.75;2.65;;;9.90;99.90;;;;;;8454017;28;20047;-74
2024/02/09 06:50:38;;;;;;;9.60;2.85;;;9.90;99.90;;;;;;8461227;27;20059;-75
2024/02/09 06:54:40;;;;;;;5.28;2.33;;;9.90;99.90;;;;;;8442894;28;20044;-74
2024/02/09 06:58:45;;;;;;;4.80;2.47;;;9.90;99.90;;;;;;8448081;27;20044;-74
2024/02/09 07:02:50;;;;;;;13.80;2.90;;;9.90;99.90;;;;;;8454977;28;20093;-74
2024/02/09 07:06:52;;;;;;;7.85;2.47;;;9.90;99.90;;;;;;8458315;28;20046;-74
2024/02/09 07:10:53;;;;;;;6.93;2.72;;;9.90;99.90;;;;;;8455225;28;20047;-74
2024/02/09 07:14:55;;;;;;;6.28;2.40;;;10.00;99.90;;;;;;8458388;28;20043;-74
2024/02/09 07:18:57;;;;;;;7.15;2.85;;;10.00;99.90;;;;;;8456924;28;20043;-74
2024/02/09 07:22:59;;;;;;;6.40;2.85;;;10.00;99.90;;;;;;8475244;27;20373;-74
2024/02/09 07:27:01;;;;;;;6.82;2.40;;;10.00;99.90;;;;;;8450930;28;20051;-74
2024/02/09 07:31:03;;;;;;;5.72;2.47;;;10.00;99.90;;;;;;8454528;28;20149;-74
2024/02/09 07:35:06;;;;;;;8.55;3.25;;;10.00;99.90;;;;;;8449142;28;20074;-74
2024/02/09 07:39:09;;;;;;;8.35;3.13;;;10.00;99.90;;;;;;8456225;28;20084;-74
2024/02/09 07:43:10;;;;;;;6.28;2.75;;;10.00;99.90;;;;;;8449194;28;20127;-74
2024/02/09 07:47:12;;;;;;;5.22;2.83;;;10.10;99.90;;;;;;8451802;28;20078;-75
2024/02/09 07:51:16;;;;;;;6.97;2.90;;;10.10;99.90;;;;;;8455519;28;20466;-74
2024/02/09 07:55:21;;;;;;;7.03;2.90;;;10.10;99.90;;;;;;8449107;28;20055;-74
2024/02/09 07:59:26;;;;;;;8.77;3.17;;;10.10;99.90;;;;;;8451739;28;20142;-74
2024/02/09 08:03:27;;;;;;;7.63;3.00;;;10.10;99.90;;;;;;8441427;28;20096;-74
2024/02/09 08:07:34;;;;;;;7.05;2.97;;;10.10;99.90;;;;;;8454561;28;20044;-75
2024/02/09 08:11:43;;;;;;;9.13;2.70;;;10.10;99.90;;;;;;8446269;28;20135;-75
2024/02/09 08:15:46;;;;;;;8.45;3.45;;;10.10;99.90;;;;;;8439433;28;20055;-74
2024/02/09 08:19:50;;;;;;;5.38;2.63;;;10.10;99.90;;;;;;8445397;28;20076;-74
2024/02/09 08:23:52;;;;;;;7.32;3.30;;;10.10;99.90;;;;;;8450073;28;20055;-74
2024/02/09 08:27:54;;;;;;;7.80;3.08;;;10.10;99.90;;;;;;8453462;28;20043;-74
2024/02/09 08:31:56;;;;;;;8.15;2.72;;;10.20;99.90;;;;;;8450321;28;20055;-73
2024/02/09 08:35:57;;;;;;;7.90;3.17;;;10.20;99.90;;;;;;8443777;28;20048;-74
2024/02/09 08:40:00;;;;;;;7.28;2.88;;;10.20;99.90;;;;;;8448366;28;20035;-74
2024/02/09 08:44:02;;;;;;;7.57;2.67;;;10.20;99.90;;;;;;8453868;28;20255;-74
2024/02/09 08:48:04;;;;;;;8.73;3.33;;;10.30;99.90;;;;;;8444017;28;20041;-74
2024/02/09 08:52:06;;;;;;;6.80;3.35;;;10.30;99.90;;;;;;8464258;27;20499;-74
2024/02/09 08:56:09;;;;;;;7.75;2.90;;;10.30;99.90;;;;;;8462128;28;20074;-74
2024/02/09 09:00:11;;;;;;;6.07;2.58;;;10.30;99.90;;;;;;8457873;28;20046;-74
2024/02/09 09:04:13;;;;;;;7.93;3.15;;;10.40;99.90;;;;;;8460220;28;20054;-74
2024/02/09 09:08:16;;;;;;;7.15;2.92;;;10.40;99.90;;;;;;8464013;28;20050;-74
2024/02/09 09:12:18;;;;;;;7.45;3.22;;;10.40;99.90;;;;;;8456446;28;20043;-74
2024/02/09 09:16:20;;;;;;;7.03;2.70;;;10.50;99.90;;;;;;8447141;27;20415;-74
2024/02/09 09:20:22;;;;;;;7.03;2.95;;;10.50;99.90;;;;;;8454356;28;20043;-74
2024/02/09 09:24:24;;;;;;;8.77;2.92;;;10.50;99.90;;;;;;8434119;28;20494;-74
2024/02/09 09:28:26;;;;;;;7.75;3.50;;;10.50;99.90;;;;;;8430296;28;20104;-74
2024/02/09 09:32:28;;;;;;;7.45;3.00;;;10.50;99.90;;;;;;8441366;28;20448;-73
2024/02/09 09:36:33;;;;;;;6.32;2.78;;;10.50;99.90;;;;;;8439185;27;20055;-74
2024/02/09 09:40:38;;;;;;;8.57;3.53;;;10.60;99.90;;;;;;8429133;28;20052;-74
2024/02/09 09:44:41;;;;;;;6.40;2.65;;;10.70;99.90;;;;;;8426650;28;20052;-74
2024/02/09 09:48:44;;;;;;;8.20;2.63;;;10.70;99.90;;;;;;8464790;27;20044;-74
2024/02/09 09:52:52;;;;;;;6.22;2.72;;;11.00;99.90;;;;;;8423655;28;20036;-73
2024/02/09 09:56:55;;;;;;;6.18;2.53;;;11.10;99.90;;;;;;8432999;27;20094;-74
2024/02/09 10:00:57;;;;;;;6.00;2.65;;;11.20;99.90;;;;;;8423477;28;20040;-74
2024/02/09 10:04:59;;;;;;;6.75;2.70;;;11.20;99.90;;;;;;8436400;27;20044;-74
2024/02/09 10:09:02;;;;;;;5.88;2.90;;;11.30;99.90;;;;;;8444925;28;20097;-73
2024/02/09 10:13:14;;;;;;;6.18;2.65;;;11.30;99.90;;;;;;8440140;28;20073;-74
2024/02/09 10:17:16;;;;;;;9.52;3.08;;;11.40;99.90;;;;;;8438292;28;20090;-74
2024/02/09 10:21:20;;;;;;;7.00;2.65;;;11.50;99.90;;;;;;8423662;28;20043;-74
2024/02/09 10:25:22;;;;;;;4.60;2.50;;;11.60;99.90;;;;;;8425493;28;20399;-73
2024/02/09 10:29:26;;;;;;;6.55;2.83;;;11.60;99.90;;;;;;8427041;28;20099;-73
2024/02/09 10:33:28;;;;;;;7.32;3.13;;;11.60;99.90;;;;;;8427907;28;20135;-73
2024/02/09 10:37:30;;;;;;;7.03;3.42;;;11.70;99.90;;;;;;8426931;28;20500;-73
2024/02/09 10:41:35;;;;;;;7.55;3.22;;;11.70;99.90;;;;;;8424561;28;20469;-73
2024/02/09 10:45:40;;;;;;;5.30;3.20;;;12.00;99.90;;;;;;8424510;28;20055;-74
2024/02/09 10:49:46;;;;;;;8.07;3.33;;;12.20;99.90;;;;;;8422764;28;20142;-73
2024/02/09 10:54:01;;;;;;;6.25;3.08;;;12.30;99.90;;;;;;8436740;28;20058;-73
2024/02/09 10:58:04;;;;;;;6.40;2.92;;;12.30;99.90;;;;;;8434825;27;20047;-73
2024/02/09 11:02:09;;;;;;;9.50;4.47;;;12.30;99.90;;;;;;8428584;28;20483;-73
2024/02/09 11:06:11;;;;;;;8.95;3.78;;;12.20;99.90;;;;;;8426030;28;20040;-73
2024/02/09 11:10:16;;;;;;;5.60;3.38;;;12.10;99.90;;;;;;8423235;28;23148;-74
2024/02/09 11:14:30;;;;;;;6.40;3.45;;;12.10;99.90;;;;;;8430660;28;20070;-74
2024/02/09 11:18:32;;;;;;;6.53;3.08;;;12.00;99.90;;;;;;8422349;28;20494;-74
2024/02/09 11:22:37;;;;;;;7.07;3.20;;;11.90;99.90;;;;;;8427119;28;20054;-73
2024/02/09 11:26:45;;;;;;;6.53;3.00;;;11.80;99.90;;;;;;8427939;28;20039;-74
2024/02/09 11:30:54;;;;;;;6.18;2.67;;;11.70;99.90;;;;;;8431333;27;20056;-74
2024/02/09 11:34:56;;;;;;;7.47;3.10;;;11.60;99.90;;;;;;8427521;28;20050;-74
2024/02/09 11:38:58;;;;;;;5.78;3.35;;;11.50;99.90;;;;;;8425558;28;20048;-74
2024/02/09 11:43:01;;;;;;;10.23;3.50;;;11.50;99.90;;;;;;8424423;28;20088;-74
2024/02/09 11:47:04;;;;;;;9.32;3.13;;;11.40;99.90;;;;;;8435675;27;20048;-74
2024/02/09 11:51:05;;;;;;;5.97;3.75;;;11.40;99.90;;;;;;8423079;28;20044;-74
2024/02/09 11:55:07;;;;;;;9.57;3.75;;;11.40;99.90;;;;;;8422361;28;20040;-74
2024/02/09 11:59:11;;;;;;;8.88;3.55;;;11.50;99.90;;;;;;8426016;28;20052;-74
2024/02/09 12:03:13;;;;;;;9.18;3.42;;;11.50;99.90;;;;;;8432180;28;20442;-74
2024/02/09 12:07:18;;;;;;;6.18;2.75;;;11.60;99.90;;;;;;8423422;28;20540;-74
2024/02/09 12:11:20;;;;;;;6.40;3.10;;;11.60;99.90;;;;;;8420206;28;20059;-74
2024/02/09 12:15:22;;;;;;;5.45;2.53;;;11.70;99.90;;;;;;8418918;28;20081;-74
2024/02/09 12:19:24;;;;;;;9.75;2.95;;;11.80;99.90;;;;;;8424236;28;20043;-74
2024/02/09 12:23:26;;;;;;;5.65;2.58;;;11.90;99.90;;;;;;8428214;28;20044;-74
2024/02/09 12:27:29;;;;;;;6.78;2.55;;;12.00;99.90;;;;;;8439072;28;20039;-74
2024/02/09 12:31:31;;;;;;;6.57;2.45;;;12.10;99.90;;;;;;8426361;28;20051;-73
2024/02/09 12:35:34;;;;;;;5.20;2.13;;;12.10;99.90;;;;;;8424623;28;20050;-74
2024/02/09 12:39:37;;;;;;;4.85;2.25;;;12.10;99.90;;;;;;8419527;28;20403;-74
2024/02/09 12:43:39;;;;;;;5.82;2.17;;;12.10;99.90;;;;;;8449901;27;20047;-73
2024/02/09 12:47:44;;;;;;;5.70;2.50;;;12.10;99.90;;;;;;8421347;28;20036;-73
2024/02/09 12:51:47;;;;;;;4.78;2.15;;;12.10;99.90;;;;;;8419989;28;20054;-73
2024/02/09 12:55:49;;;;;;;5.05;2.35;;;12.10;99.90;;;;;;8438638;28;20085;-73
2024/02/09 12:59:52;;;;;;;8.10;2.35;;;12.20;99.90;;;;;;8451579;27;20044;-73
2024/02/09 13:03:54;;;;;;;4.63;2.10;;;12.20;99.90;;;;;;8424074;28;20040;-74
2024/02/09 13:07:57;;;;;;;6.95;2.40;;;12.30;99.90;;;;;;8423550;28;20048;-74
2024/02/09 13:11:59;;;;;;;5.82;2.38;;;12.40;99.90;;;;;;8423473;28;20105;-73
2024/02/09 13:16:02;;;;;;;6.47;2.15;;;12.40;99.90;;;;;;8419005;28;20040;-73
2024/02/09 13:20:08;;;;;;;6.72;2.50;;;12.50;99.90;;;;;;8420051;28;20048;-73
2024/02/09 13:24:10;;;;;;;11.02;2.47;;;12.60;99.90;;;;;;8421681;28;20697;-73
2024/02/09 13:28:13;;;;;;;5.05;2.00;;;12.80;99.90;;;;;;8422298;28;20085;-72
2024/02/09 13:32:16;;;;;;;5.40;2.50;;;12.90;99.90;;;;;;8421181;28;20052;-73
2024/02/09 13:36:18;;;;;;;5.20;2.10;;;13.00;99.90;;;;;;8418999;28;20309;-73
2024/02/09 13:40:20;;;;;;;5.40;2.60;;;13.00;99.90;;;;;;8422078;28;20552;-73
2024/02/09 13:44:22;;;;;;;5.35;2.50;;;13.00;99.90;;;;;;8429045;28;20036;-74
2024/02/09 13:48:24;;;;;;;7.47;2.30;;;13.10;99.90;;;;;;8431375;28;20050;-74
2024/02/09 13:52:27;;;;;;;4.63;2.05;;;13.30;99.90;;;;;;8423567;28;20043;-74
2024/02/09 13:56:29;;;;;;;5.78;2.15;;;13.40;99.90;;;;;;8426822;28;20052;-73
2024/02/09 14:00:31;;;;;;;4.18;2.08;;;13.40;99.90;;;;;;8425966;28;20109;-74
2024/02/09 14:04:34;;;;;;;4.40;2.10;;;13.30;99.90;;;;;;8425439;28;20067;-73
2024/02/09 14:08:38;;;;;;;5.25;2.17;;;13.10;99.90;;;;;;8426212;28;20051;-73
2024/02/09 14:12:40;;;;;;;6.55;1.90;;;13.00;99.90;;;;;;8425682;28;20051;-73
2024/02/09 14:16:42;;;;;;;6.28;2.00;;;13.00;99.90;;;;;;8427198;28;20102;-73
2024/02/09 14:20:46;;;;;;;6.90;2.00;;;13.00;99.90;;;;;;8426300;27;20507;-73
2024/02/09 14:24:48;;;;;;;4.72;2.08;;;12.90;99.90;;;;;;8425394;27;20043;-74
2024/02/09 14:28:50;;;;;;;4.35;1.88;;;12.90;99.90;;;;;;8422502;28;20036;-73
2024/02/09 14:32:55;;;;;;;7.55;2.20;;;12.90;99.90;;;;;;8430084;27;20071;-74
2024/02/09 14:36:57;;;;;;;6.03;2.30;;;12.90;99.90;;;;;;8427652;28;20060;-73
2024/02/09 14:40:59;;;;;;;6.32;2.47;;;12.90;99.90;;;;;;8422999;28;20058;-74
2024/02/09 14:45:02;;;;;;;5.55;2.20;;;12.90;99.90;;;;;;8426819;28;20047;-74
2024/02/09 14:49:04;;;;;;;5.05;1.98;;;13.00;99.90;;;;;;8427712;28;20051;-73
2024/02/09 14:53:06;;;;;;;6.80;2.50;;;13.10;99.90;;;;;;8424190;28;20089;-74
2024/02/09 14:57:09;;;;;;;5.35;2.10;;;13.10;99.90;;;;;;8430137;28;20338;-74
2024/02/09 15:01:11;;;;;;;4.78;2.20;;;13.10;99.90;;;;;;8427298;27;20044;-74
2024/02/09 15:05:14;;;;;;;5.53;2.10;;;13.10;99.90;;;;;;8428444;27;20402;-73
2024/02/09 15:09:18;;;;;;;6.40;2.20;;;13.00;99.90;;;;;;8445479;27;20151;-74
2024/02/09 15:13:26;;;;;;;6.05;2.28;;;12.90;99.90;;;;;;8423890;28;20084;-74
2024/02/09 15:17:29;;;;;;;4.50;2.00;;;12.90;99.90;;;;;;8427670;28;20047;-74
2024/02/09 15:21:32;;;;;;;5.53;1.73;;;12.80;99.90;;;;;;8429251;28;20039;-74
2024/02/09 15:25:34;;;;;;;5.00;2.42;;;12.80;99.90;;;;;;8451283;27;20089;-74
2024/02/09 15:29:36;;;;;;;7.30;1.70;;;12.80;99.90;;;;;;8425240;28;20051;-74
2024/02/09 15:33:38;;;;;;;4.90;1.70;;;12.80;99.90;;;;;;8426854;28;20047;-74
2024/02/09 15:37:41;;;;;;;3.85;1.52;;;12.70;99.90;;;;;;8420249;28;20116;-74
2024/02/09 15:41:44;;;;;;;5.07;1.63;;;12.70;99.90;;;;;;8423512;28;20043;-73
2024/02/09 15:45:46;;;;;;;3.63;1.20;;;12.70;99.90;;;;;;8419752;28;20135;-73
2024/02/09 15:49:50;;;;;;;3.65;1.30;;;12.60;99.90;;;;;;8424591;28;20051;-74
2024/02/09 15:53:54;;;;;;;4.43;1.50;;;12.60;99.90;;;;;;8433841;28;20515;-73
2024/02/09 15:57:56;;;;;;;3.47;1.23;;;12.60;99.90;;;;;;8424196;28;20039;-73
2024/02/09 16:01:58;;;;;;;5.55;2.38;;;12.60;99.90;;;;;;8424219;28;20136;-74
2024/02/09 16:05:59;;;;;;;2.25;1.10;;;12.60;99.90;;;;;;8422865;28;20051;-74
2024/02/09 16:10:01;;;;;;;3.53;1.20;;;12.60;99.90;;;;;;8421565;28;20123;-74
2024/02/09 16:14:03;;;;;;;4.20;1.25;;;12.50;99.90;;;;;;8431257;28;20042;-74
2024/02/09 16:18:07;;;;;;;3.53;1.33;;;12.50;99.90;;;;;;8423357;28;20040;-74
2024/02/09 16:22:09;;;;;;;4.25;1.40;;;12.50;99.90;;;;;;8433632;28;20119;-74
2024/02/09 16:26:11;;;;;;;3.50;1.20;;;12.50;99.90;;;;;;8446203;27;20327;-74
2024/02/09 16:30:16;;;;;;;4.25;1.30;;;12.50;99.90;;;;;;8421387;28;20309;-74
2024/02/09 16:34:18;;;;;;;4.30;1.50;;;12.50;99.90;;;;;;8424486;28;20052;-74
2024/02/09 16:38:20;;;;;;;5.50;1.60;;;12.40;99.90;;;;;;8422493;28;20052;-74
2024/02/09 16:42:22;;;;;;;5.28;1.50;;;12.40;99.90;;;;;;8422929;28;20044;-74
2024/02/09 16:46:24;;;;;;;4.60;1.40;;;12.40;99.90;;;;;;8427362;28;20101;-74
2024/02/09 16:50:27;;;;;;;3.78;1.30;;;12.40;99.90;;;;;;8419349;28;20048;-74
2024/02/09 16:54:29;;;;;;;4.40;1.35;;;12.40;99.90;;;;;;8428873;28;20070;-74
2024/02/09 16:58:31;;;;;;;4.75;1.52;;;12.40;99.90;;;;;;8436354;28;20043;-74
2024/02/09 17:02:34;;;;;;;7.85;2.20;;;12.40;99.90;;;;;;8420467;28;20040;-74
2024/02/09 17:06:36;;;;;;;6.18;1.95;;;12.40;99.90;;;;;;8427102;28;20044;-74
2024/02/09 17:10:38;;;;;;;5.03;2.03;;;12.40;99.90;;;;;;8420677;28;20044;-74
2024/02/09 17:14:40;;;;;;;5.25;1.80;;;12.40;99.90;;;;;;8427358;28;20058;-74
2024/02/09 17:18:42;;;;;;;5.63;1.92;;;12.30;99.90;;;;;;8430516;28;20449;-74
2024/02/09 17:22:44;;;;;;;5.30;1.98;;;12.30;99.90;;;;;;8426970;28;20039;-75
2024/02/09 17:26:45;;;;;;;6.13;1.85;;;12.30;99.90;;;;;;8440412;28;20627;-74
2024/02/09 17:30:47;;;;;;;7.45;2.00;;;12.30;99.90;;;;;;8431105;28;20510;-75
2024/02/09 17:34:50;;;;;;;5.72;1.95;;;12.30;99.90;;;;;;8431081;27;20050;-75
2024/02/09 17:38:52;;;;;;;7.53;2.00;;;12.30;99.90;;;;;;8436050;28;20055;-74
2024/02/09 17:42:56;;;;;;;4.38;1.80;;;12.20;99.90;;;;;;8459302;27;20100;-75
2024/02/09 17:46:59;;;;;;;5.43;1.95;;;12.20;99.90;;;;;;8430707;28;20451;-75
2024/02/09 17:51:06;;;;;;;4.38;1.88;;;12.20;99.90;;;;;;8431324;28;20052;-75
2024/02/09 17:55:08;;;;;;;6.82;2.20;;;12.20;99.90;;;;;;8434216;28;20055;-75
2024/02/09 17:59:13;;;;;;;4.50;1.85;;;12.20;99.90;;;;;;8435540;28;20075;-74
2024/02/09 18:03:15;;;;;;;4.72;1.88;;;12.20;99.90;;;;;;8427278;28;20054;-74
2024/02/09 18:07:18;;;;;;;4.18;1.90;;;12.10;99.90;;;;;;8453834;27;20066;-74
2024/02/09 18:11:20;;;;;;;5.18;1.88;;;12.10;99.90;;;;;;8428939;28;20056;-74
2024/02/09 18:15:22;;;;;;;4.53;2.08;;;12.10;99.90;;;;;;8436730;28;20052;-74
2024/02/09 18:19:24;;;;;;;5.30;1.85;;;12.10;99.90;;;;;;8428089;28;20052;-75
2024/02/09 18:23:27;;;;;;;5.75;2.40;;;12.10;99.90;;;;;;8442163;28;20546;-74
2024/02/09 18:27:30;;;;;;;6.80;2.40;;;12.00;99.90;;;;;;8426772;28;20047;-75
2024/02/09 18:31:32;;;;;;;4.80;1.67;;;12.00;99.90;;;;;;8425450;28;20048;-75
2024/02/09 18:35:34;;;;;;;5.60;2.40;;;12.00;99.90;;;;;;8427438;28;20146;-75
2024/02/09 18:39:36;;;;;;;6.35;2.67;;;11.90;99.90;;;;;;8435471;28;20055;-74
2024/02/09 18:43:38;;;;;;;5.60;2.22;;;11.90;99.90;;;;;;8423537;28;20418;-75
2024/02/09 18:47:40;;;;;;;4.72;2.47;;;11.80;99.90;;;;;;8439079;28;20082;-75
2024/02/09 18:51:42;;;;;;;5.32;2.15;;;11.80;99.90;;;;;;8457000;27;20166;-74
2024/02/09 18:55:44;;;;;;;3.88;2.10;;;11.80;99.90;;;;;;8446060;27;20048;-74
2024/02/09 18:59:46;;;;;;;6.25;2.42;;;11.80;99.90;;;;;;8430360;28;20044;-75
2024/02/09 19:03:47;;;;;;;7.78;3.00;;;11.70;99.90;;;;;;8431606;28;20075;-74
2024/02/09 19:07:49;;;;;;;5.57;2.10;;;11.70;99.90;;;;;;8425181;28;20048;-74
2024/02/09 19:11:51;;;;;;;5.20;2.75;;;11.70;99.90;;;;;;8424431;28;20052;-74
2024/02/09 19:15:53;;;;;;;7.50;3.47;;;11.80;99.90;;;;;;8427736;28;20565;-74
2024/02/09 19:19:55;;;;;;;6.18;3.03;;;11.80;99.90;;;;;;8430346;28;20515;-74
2024/02/09 19:23:59;;;;;;;5.10;2.45;;;11.70;99.90;;;;;;8428703;28;20717;-74
2024/02/09 19:28:01;;;;;;;7.70;3.10;;;11.80;99.90;;;;;;8428498;28;20152;-74
2024/02/09 19:32:03;;;;;;;5.53;3.13;;;11.70;99.90;;;;;;8428202;28;20052;-74
2024/02/09 19:36:08;;;;;;;5.75;2.92;;;11.70;99.90;;;;;;8426930;28;20059;-75
2024/02/09 19:40:11;;;;;;;7.22;2.92;;;11.70;99.90;;;;;;8459868;27;20504;-75
2024/02/09 19:44:17;;;;;;;8.63;2.88;;;11.70;99.90;;;;;;8426752;28;20047;-74
2024/02/09 19:48:19;;;;;;;6.10;2.80;;;11.70;99.90;;;;;;8438617;28;20047;-75
2024/02/09 19:52:21;;;;;;;6.38;2.45;;;11.70;99.90;;;;;;8423431;28;20048;-75
2024/02/09 19:56:23;;;;;;;6.15;2.67;;;11.60;99.90;;;;;;8427658;28;20048;-74
2024/02/09 20:00:25;;;;;;;7.03;2.60;;;11.60;99.90;;;;;;8424331;28;20044;-74
2024/02/09 20:04:27;;;;;;;8.02;2.47;;;11.60;99.90;;;;;;8429648;28;20093;-74
2024/02/09 20:08:29;;;;;;;6.95;3.17;;;11.60;99.90;;;;;;8437318;28;20048;-74
2024/02/09 20:12:31;;;;;;;6.90;3.17;;;11.60;99.90;;;;;;8422283;28;20561;-75
2024/02/09 20:16:34;;;;;;;6.93;3.00;;;11.60;99.90;;;;;;8427254;28;20044;-74
2024/02/09 20:20:36;;;;;;;5.30;2.50;;;11.50;99.90;;;;;;8426416;27;20096;-74
2024/02/09 20:24:38;;;;;;;6.30;3.00;;;11.50;99.90;;;;;;8433243;27;20109;-74
2024/02/09 20:28:42;;;;;;;10.35;3.50;;;11.40;99.90;;;;;;8436286;28;20048;-74
2024/02/09 20:32:44;;;;;;;6.35;3.42;;;11.40;99.90;;;;;;8424175;28;20457;-74
2024/02/09 20:36:48;;;;;;;8.63;3.35;;;11.30;99.90;;;;;;8425018;28;20055;-74
2024/02/09 20:40:54;;;;;;;7.20;3.67;;;11.30;99.90;;;;;;8425829;28;20047;-74
2024/02/09 20:44:56;;;;;;;6.60;3.13;;;11.30;99.90;;;;;;8424319;28;20040;-74
2024/02/09 20:48:58;;;;;;;8.90;3.60;;;11.30;99.90;;;;;;8425337;28;20055;-74
2024/02/09 20:53:05;;;;;;;7.05;3.50;;;11.20;99.90;;;;;;8423635;28;20551;-74
2024/02/09 20:57:08;;;;;;;6.45;2.92;;;11.20;99.90;;;;;;8425755;28;20048;-74
2024/02/09 21:01:11;;;;;;;6.72;3.20;;;11.20;99.90;;;;;;8427859;28;20143;-74
2024/02/09 21:05:13;;;;;;;6.63;3.08;;;11.20;99.90;;;;;;8423581;28;20044;-74
2024/02/09 21:09:16;;;;;;;6.10;3.28;;;11.20;99.90;;;;;;8427319;28;20051;-74
2024/02/09 21:13:17;;;;;;;8.43;3.55;;;11.10;99.90;;;;;;8434972;28;20442;-74
2024/02/09 21:17:19;;;;;;;6.85;3.45;;;11.10;99.90;;;;;;8424901;28;20044;-74
2024/02/09 21:21:22;;;;;;;8.48;3.08;;;11.10;99.90;;;;;;8423744;28;20047;-74
2024/02/09 21:25:24;;;;;;;8.68;3.50;;;11.10;99.90;;;;;;8427075;28;20411;-74
2024/02/09 21:29:29;;;;;;;7.13;3.35;;;11.10;99.90;;;;;;8428918;28;20487;-75
2024/02/09 21:33:33;;;;;;;6.55;2.72;;;11.10;99.90;;;;;;8438056;28;20044;-74
2024/02/09 21:37:35;;;;;;;7.90;3.13;;;11.10;99.90;;;;;;8424338;28;20055;-75
2024/02/09 21:41:37;;;;;;;7.65;3.47;;;11.10;99.90;;;;;;8458583;27;20044;-74
2024/02/09 21:45:44;;;;;;;6.18;2.80;;;11.10;99.90;;;;;;8455158;27;20072;-74
2024/02/09 21:49:46;;;;;;;6.20;2.92;;;11.10;99.90;;;;;;8427448;28;20096;-74
2024/02/09 21:53:49;;;;;;;6.82;3.42;;;11.00;99.90;;;;;;8424962;28;20094;-74
2024/02/09 21:57:53;;;;;;;7.80;3.10;;;11.00;99.90;;;;;;8425287;28;20036;-74
2024/02/09 22:01:56;;;;;;;11.73;3.53;;;11.00;99.90;;;;;;8429624;28;20483;-74
2024/02/09 22:05:58;;;;;;;6.22;3.40;;;11.00;99.90;;;;;;8457439;28;20490;-74
2024/02/09 22:09:59;;;;;;;5.22;2.60;;;11.00;99.90;;;;;;8455259;28;20046;-74
2024/02/09 22:14:01;;;;;;;6.60;3.05;;;11.00;99.90;;;;;;8447903;28;20405;-74
2024/02/09 22:18:03;;;;;;;10.10;3.75;;;10.90;99.90;;;;;;8460287;27;20047;-74
2024/02/09 22:22:09;;;;;;;9.95;3.60;;;10.90;99.90;;;;;;8453008;28;20062;-74
2024/02/09 22:26:14;;;;;;;7.40;3.35;;;10.90;99.90;;;;;;8483970;27;20044;-74
2024/02/09 22:30:16;;;;;;;8.23;3.63;;;10.90;99.90;;;;;;8451663;28;20040;-74
2024/02/09 22:34:21;;;;;;;8.18;3.30;;;10.90;99.90;;;;;;8457756;28;20425;-75
2024/02/09 22:38:26;;;;;;;7.78;4.28;;;10.90;99.90;;;;;;8457474;28;20066;-74
2024/02/09 22:42:28;;;;;;;8.27;3.60;;;11.00;99.90;;;;;;8457640;28;20066;-74
2024/02/09 22:46:30;;;;;;;6.10;3.50;;;11.00;99.90;;;;;;8453663;28;20044;-74
2024/02/09 22:50:32;;;;;;;8.38;3.60;;;11.00;99.90;;;;;;8453303;28;20051;-74
2024/02/09 22:54:34;;;;;;;9.15;3.72;;;11.00;99.90;;;;;;8449829;28;20065;-75